Time;durP1;ratioP1;P1;durP2;ratioP2;P2;SDS_P1;SDS_P2;PMS_P1;PMS_P2;Temp;Humidity;BMP_temperature;BMP_pressure;BME280_temperature;BME280_humidity;BME280_pressure;Samples;Min_cycle;Max_cycle;Signal;HPM_P1;HPM_P2
2022/08/30 00:03:26;;;;;;;1.95;0.80;;;18.60;99.90;;;;;;5109578;28;20427;-63
2022/08/30 00:05:52;;;;;;;2.38;1.10;;;18.60;99.90;;;;;;5111000;28;20457;-63
2022/08/30 00:08:18;;;;;;;2.03;1.10;;;18.60;99.90;;;;;;5092152;28;20502;-63
2022/08/30 00:10:45;;;;;;;4.43;1.17;;;18.60;99.90;;;;;;5092534;28;20407;-63
2022/08/30 00:13:12;;;;;;;2.50;1.20;;;18.60;99.90;;;;;;5092328;28;20473;-63
2022/08/30 00:15:39;;;;;;;1.50;1.17;;;18.60;99.90;;;;;;5109765;28;20690;-62
2022/08/30 00:18:05;;;;;;;1.88;1.13;;;18.60;99.90;;;;;;5111070;28;20738;-62
2022/08/30 00:20:32;;;;;;;1.90;1.17;;;18.50;99.90;;;;;;5092856;28;20451;-62
2022/08/30 00:22:58;;;;;;;1.75;1.00;;;18.50;99.90;;;;;;5092540;28;20457;-62
2022/08/30 00:25:24;;;;;;;1.58;1.13;;;18.50;99.90;;;;;;5092044;28;20722;-63
2022/08/30 00:27:50;;;;;;;4.07;1.23;;;18.50;99.90;;;;;;5109630;28;20399;-62
2022/08/30 00:30:17;;;;;;;1.80;0.90;;;18.50;99.90;;;;;;5109618;28;20383;-62
2022/08/30 00:32:43;;;;;;;2.53;1.10;;;18.40;99.90;;;;;;5109998;28;20414;-62
2022/08/30 00:35:11;;;;;;;1.45;0.85;;;18.40;99.90;;;;;;5091318;28;20400;-62
2022/08/30 00:37:37;;;;;;;2.33;1.02;;;18.30;99.90;;;;;;5091102;28;20657;-62
2022/08/30 00:40:04;;;;;;;1.50;1.00;;;18.30;99.90;;;;;;5090561;28;20792;-62
2022/08/30 00:42:31;;;;;;;1.33;1.00;;;18.40;99.90;;;;;;5091731;28;20808;-61
2022/08/30 00:44:58;;;;;;;1.00;0.75;;;18.30;99.90;;;;;;5092357;28;20465;-62
2022/08/30 00:47:24;;;;;;;1.35;0.90;;;18.30;99.90;;;;;;5110256;28;20472;-63
2022/08/30 00:49:54;;;;;;;2.20;0.90;;;18.30;99.90;;;;;;5093518;28;20525;-62
2022/08/30 00:52:22;;;;;;;4.00;1.07;;;18.30;99.90;;;;;;5092975;28;20788;-62
2022/08/30 00:54:50;;;;;;;2.53;0.97;;;18.30;99.90;;;;;;5093290;28;20968;-62
2022/08/30 00:57:16;;;;;;;1.88;1.15;;;18.30;99.90;;;;;;5092769;28;20524;-62
2022/08/30 00:59:45;;;;;;;1.40;0.95;;;18.30;99.90;;;;;;5111178;28;20495;-62
2022/08/30 01:02:12;;;;;;;1.50;0.90;;;18.30;99.90;;;;;;5093003;28;20687;-62
2022/08/30 01:04:40;;;;;;;1.42;0.90;;;18.30;99.90;;;;;;5110206;28;20640;-62
2022/08/30 01:07:07;;;;;;;1.50;0.93;;;18.40;99.90;;;;;;5093553;28;20441;-62
2022/08/30 01:09:33;;;;;;;3.42;1.10;;;18.40;99.90;;;;;;5094496;28;20461;-62
2022/08/30 01:12:00;;;;;;;1.83;0.90;;;18.40;99.90;;;;;;5111880;28;20462;-62
2022/08/30 01:14:26;;;;;;;2.60;1.00;;;18.40;99.90;;;;;;5112340;28;20425;-62
2022/08/30 01:16:54;;;;;;;1.63;0.97;;;18.40;99.90;;;;;;5112003;28;20376;-62
2022/08/30 01:19:37;;;;;;;1.50;0.77;;;18.40;99.90;;;;;;5093452;28;20384;-62
2022/08/30 01:22:23;;;;;;;1.40;0.90;;;18.40;99.90;;;;;;5110434;28;20407;-62
2022/08/30 01:24:51;;;;;;;1.30;0.90;;;18.30;99.90;;;;;;5093087;28;20524;-61
2022/08/30 01:27:19;;;;;;;1.02;0.82;;;18.30;99.90;;;;;;5077026;28;20368;-61
2022/08/30 01:29:46;;;;;;;1.67;1.00;;;18.30;99.90;;;;;;5110102;28;20388;-62
2022/08/30 01:32:20;;;;;;;1.70;0.90;;;18.30;99.90;;;;;;5093833;28;20388;-62
2022/08/30 01:34:47;;;;;;;1.30;0.98;;;18.30;99.90;;;;;;5095224;28;20376;-62
2022/08/30 01:37:16;;;;;;;3.58;1.20;;;18.30;99.90;;;;;;5095386;28;20431;-62
2022/08/30 01:39:44;;;;;;;1.50;0.80;;;18.30;99.90;;;;;;5094916;28;20472;-63
2022/08/30 01:42:09;;;;;;;2.22;1.00;;;18.30;99.90;;;;;;5094773;28;20664;-62
2022/08/30 01:44:35;;;;;;;2.07;1.10;;;18.30;99.90;;;;;;5094858;28;20812;-63
2022/08/30 01:47:00;;;;;;;2.60;1.20;;;18.20;99.90;;;;;;5095644;28;20797;-62
2022/08/30 01:49:26;;;;;;;1.87;0.90;;;18.20;99.90;;;;;;5095433;28;20473;-62
2022/08/30 01:51:52;;;;;;;1.83;1.00;;;18.20;99.90;;;;;;5095362;28;20384;-63
2022/08/30 01:54:18;;;;;;;1.17;0.87;;;18.20;99.90;;;;;;5095517;28;20396;-62
2022/08/30 01:56:43;;;;;;;2.43;1.10;;;18.10;99.90;;;;;;5094620;28;20380;-62
2022/08/30 01:59:09;;;;;;;1.25;0.95;;;18.10;99.90;;;;;;5092676;28;20380;-62
2022/08/30 02:01:35;;;;;;;2.08;1.10;;;18.20;99.90;;;;;;5109704;28;20415;-62
2022/08/30 02:04:02;;;;;;;1.50;0.90;;;18.20;99.90;;;;;;5091371;28;20377;-63
2022/08/30 02:06:28;;;;;;;1.58;1.05;;;18.10;99.90;;;;;;5093017;28;20388;-62
2022/08/30 02:08:54;;;;;;;1.73;1.02;;;18.10;99.90;;;;;;5115491;28;20499;-62
2022/08/30 02:11:19;;;;;;;1.98;1.00;;;18.10;99.90;;;;;;5097810;28;20465;-62
2022/08/30 02:13:45;;;;;;;1.80;0.90;;;18.10;99.90;;;;;;5115772;28;20379;-62
2022/08/30 02:16:15;;;;;;;1.58;1.00;;;18.10;99.90;;;;;;5097195;28;20727;-62
2022/08/30 02:18:41;;;;;;;1.38;1.05;;;18.00;99.90;;;;;;5097706;28;20798;-62
2022/08/30 02:21:08;;;;;;;1.33;0.95;;;18.10;99.90;;;;;;5098153;28;20816;-62
2022/08/30 02:23:34;;;;;;;1.75;1.02;;;18.10;99.90;;;;;;5098438;28;20449;-63
2022/08/30 02:26:01;;;;;;;1.05;0.80;;;18.10;99.90;;;;;;5099418;28;20776;-62
2022/08/30 02:28:26;;;;;;;2.30;1.10;;;18.00;99.90;;;;;;5098039;28;20376;-63
2022/08/30 02:30:53;;;;;;;2.73;0.90;;;18.00;99.90;;;;;;5098845;28;20546;-62
2022/08/30 02:33:18;;;;;;;1.83;1.10;;;18.00;99.90;;;;;;5115847;28;20388;-62
2022/08/30 02:35:44;;;;;;;2.13;0.90;;;18.00;99.90;;;;;;5096085;28;20699;-62
2022/08/30 02:38:10;;;;;;;1.47;0.80;;;18.00;99.90;;;;;;5096614;28;20392;-62
2022/08/30 02:40:35;;;;;;;1.48;0.90;;;18.00;99.90;;;;;;5096459;28;20411;-62
2022/08/30 02:43:01;;;;;;;2.50;0.80;;;18.00;99.90;;;;;;5115878;28;20403;-63
2022/08/30 02:45:27;;;;;;;2.57;1.20;;;18.00;99.90;;;;;;5097693;28;20426;-62
2022/08/30 02:47:55;;;;;;;1.65;0.80;;;18.00;99.90;;;;;;5114110;28;20806;-62
2022/08/30 02:50:22;;;;;;;1.52;0.90;;;17.90;99.90;;;;;;5116785;28;20636;-62
2022/08/30 02:52:48;;;;;;;1.23;0.88;;;17.90;99.90;;;;;;5097574;28;20459;-62
2022/08/30 02:55:13;;;;;;;1.67;0.80;;;17.90;99.90;;;;;;5115725;28;20519;-62
2022/08/30 02:57:39;;;;;;;1.40;0.80;;;17.90;99.90;;;;;;5098056;28;20400;-62
2022/08/30 03:00:09;;;;;;;2.47;0.90;;;18.00;99.90;;;;;;5115468;28;20384;-62
2022/08/30 03:02:35;;;;;;;1.45;0.90;;;17.90;99.90;;;;;;5095943;28;20408;-62
2022/08/30 03:05:03;;;;;;;1.13;0.82;;;17.90;99.90;;;;;;5096398;28;20437;-62
2022/08/30 03:07:30;;;;;;;1.27;0.80;;;17.90;99.90;;;;;;5114722;28;20376;-62
2022/08/30 03:09:56;;;;;;;1.40;0.90;;;17.90;99.90;;;;;;5096193;28;20400;-62
2022/08/30 03:12:21;;;;;;;1.02;0.77;;;17.90;99.90;;;;;;5096749;28;20376;-62
2022/08/30 03:14:47;;;;;;;2.70;1.25;;;17.90;99.90;;;;;;5094779;28;20403;-62
2022/08/30 03:17:13;;;;;;;2.30;1.00;;;17.90;99.90;;;;;;5110771;28;20466;-62
2022/08/30 03:19:38;;;;;;;2.42;1.05;;;17.90;99.90;;;;;;5094168;28;20391;-62
2022/08/30 03:22:05;;;;;;;1.83;1.10;;;17.90;99.90;;;;;;5093802;28;20822;-62
2022/08/30 03:24:32;;;;;;;1.00;0.87;;;17.80;99.90;;;;;;5095355;28;20372;-62
2022/08/30 03:26:57;;;;;;;8.15;1.63;;;17.80;99.90;;;;;;5096441;28;20412;-62
2022/08/30 03:29:23;;;;;;;1.73;1.20;;;17.70;99.90;;;;;;5114868;28;20423;-62
2022/08/30 03:31:49;;;;;;;2.27;1.03;;;17.80;99.90;;;;;;5096676;28;20453;-62
2022/08/30 03:34:15;;;;;;;1.90;1.00;;;17.70;99.90;;;;;;5094273;28;20457;-62
2022/08/30 03:36:41;;;;;;;1.40;0.90;;;17.70;99.90;;;;;;5088485;28;20594;-62
2022/08/30 03:39:07;;;;;;;1.50;0.90;;;17.60;99.90;;;;;;5089538;28;20440;-62
2022/08/30 03:41:33;;;;;;;2.13;1.00;;;17.70;99.90;;;;;;5088962;28;20405;-62
2022/08/30 03:43:59;;;;;;;1.23;0.90;;;17.70;99.90;;;;;;5088043;28;20370;-62
2022/08/30 03:46:25;;;;;;;1.33;0.90;;;17.60;99.90;;;;;;5088911;28;20486;-63
2022/08/30 03:48:51;;;;;;;2.10;1.10;;;17.60;99.90;;;;;;5090614;28;20798;-62
2022/08/30 03:51:17;;;;;;;2.95;1.15;;;17.60;99.90;;;;;;5090084;28;20409;-62
2022/08/30 03:53:43;;;;;;;1.45;1.10;;;17.50;99.90;;;;;;5091698;28;20374;-62
2022/08/30 03:56:09;;;;;;;2.03;1.17;;;17.40;99.90;;;;;;5092228;28;20389;-62
2022/08/30 03:58:35;;;;;;;2.70;1.23;;;17.40;99.90;;;;;;5092252;28;20488;-62
2022/08/30 04:01:01;;;;;;;1.77;1.20;;;17.40;99.90;;;;;;5089867;28;20474;-62
2022/08/30 04:03:27;;;;;;;1.67;1.07;;;17.40;99.90;;;;;;5092471;28;20432;-62
2022/08/30 04:05:53;;;;;;;1.43;1.20;;;17.40;99.90;;;;;;5091218;28;20386;-62
2022/08/30 04:08:19;;;;;;;2.55;1.20;;;17.40;99.90;;;;;;5091531;28;20384;-62
2022/08/30 04:10:46;;;;;;;1.60;1.10;;;17.40;99.90;;;;;;5088373;28;20386;-62
2022/08/30 04:13:13;;;;;;;1.95;1.10;;;17.30;99.90;;;;;;5089845;28;20382;-62
2022/08/30 04:15:38;;;;;;;1.73;1.17;;;17.30;99.90;;;;;;5087208;28;20405;-61
2022/08/30 04:18:04;;;;;;;2.33;1.00;;;17.30;99.90;;;;;;5084454;28;20386;-62
2022/08/30 04:20:30;;;;;;;2.05;1.10;;;17.20;99.90;;;;;;5085240;28;20481;-62
2022/08/30 04:22:56;;;;;;;1.47;1.10;;;17.20;99.90;;;;;;5084654;28;20763;-62
2022/08/30 04:25:22;;;;;;;2.60;1.30;;;17.30;99.90;;;;;;5085348;28;20378;-62
2022/08/30 04:27:48;;;;;;;2.03;1.25;;;17.30;99.90;;;;;;5084492;28;20578;-62
2022/08/30 04:30:15;;;;;;;1.73;1.13;;;17.30;99.90;;;;;;5083272;28;20789;-62
2022/08/30 04:32:42;;;;;;;1.00;0.88;;;17.30;99.90;;;;;;5085303;28;20469;-62
2022/08/30 04:35:09;;;;;;;1.77;1.10;;;17.30;99.90;;;;;;5090291;28;20404;-62
2022/08/30 04:37:36;;;;;;;2.37;1.37;;;17.30;99.90;;;;;;5104859;28;20399;-62
2022/08/30 04:40:03;;;;;;;1.90;1.30;;;17.30;99.90;;;;;;5104898;28;20419;-61
2022/08/30 04:42:32;;;;;;;2.08;1.00;;;17.20;99.90;;;;;;5107335;28;20669;-62
2022/08/30 04:45:01;;;;;;;1.77;1.42;;;17.20;99.90;;;;;;5091687;28;20420;-62
2022/08/30 04:47:26;;;;;;;1.63;1.10;;;17.20;99.90;;;;;;5109615;28;20384;-62
2022/08/30 04:49:52;;;;;;;1.38;1.10;;;17.20;99.90;;;;;;5091423;28;20668;-62
2022/08/30 04:52:18;;;;;;;1.75;1.20;;;17.20;99.90;;;;;;5108808;28;20391;-62
2022/08/30 04:54:44;;;;;;;2.28;1.20;;;17.20;99.90;;;;;;5090998;28;20372;-62
2022/08/30 04:57:10;;;;;;;2.63;1.40;;;17.20;99.90;;;;;;5106963;28;20605;-62
2022/08/30 04:59:37;;;;;;;1.57;1.20;;;17.20;99.90;;;;;;5087335;28;20691;-62
2022/08/30 05:02:03;;;;;;;2.28;1.10;;;17.20;99.90;;;;;;5105366;28;20646;-62
2022/08/30 05:04:29;;;;;;;3.13;1.20;;;17.20;99.90;;;;;;5087320;28;20811;-62
2022/08/30 05:06:55;;;;;;;3.47;1.30;;;17.30;99.90;;;;;;5105021;28;20397;-62
2022/08/30 05:09:21;;;;;;;1.83;1.20;;;17.30;99.90;;;;;;5088100;28;20373;-62
2022/08/30 05:11:47;;;;;;;1.60;1.20;;;17.30;99.90;;;;;;5086305;28;20389;-62
2022/08/30 05:14:12;;;;;;;1.60;1.30;;;17.30;99.90;;;;;;5088269;28;20652;-62
2022/08/30 05:16:40;;;;;;;2.60;1.30;;;17.30;99.90;;;;;;5088962;28;20794;-61
2022/08/30 05:19:06;;;;;;;1.88;1.25;;;17.30;99.90;;;;;;5090240;28;20837;-62
2022/08/30 05:21:33;;;;;;;2.20;1.37;;;17.30;99.90;;;;;;5087699;28;20400;-62
2022/08/30 05:24:00;;;;;;;1.38;1.10;;;17.40;99.90;;;;;;5083789;28;20495;-62
2022/08/30 05:26:32;;;;;;;1.83;1.23;;;17.40;99.90;;;;;;5086501;28;20395;-62
2022/08/30 05:28:58;;;;;;;1.85;1.30;;;17.40;99.90;;;;;;5085647;28;20483;-62
2022/08/30 05:31:31;;;;;;;2.27;1.30;;;17.40;99.90;;;;;;5085238;28;20384;-62
2022/08/30 05:33:57;;;;;;;2.53;1.17;;;17.40;99.90;;;;;;5104022;28;20380;-62
2022/08/30 05:36:26;;;;;;;2.17;1.10;;;17.40;99.90;;;;;;5083382;28;20451;-61
2022/08/30 05:38:52;;;;;;;1.88;1.10;;;17.40;99.90;;;;;;5101491;28;20747;-62
2022/08/30 05:41:19;;;;;;;1.65;1.05;;;17.40;99.90;;;;;;5083961;28;20375;-62
2022/08/30 05:43:45;;;;;;;1.60;1.10;;;17.40;99.90;;;;;;5086494;28;20667;-62
2022/08/30 05:46:17;;;;;;;1.60;1.10;;;17.40;99.90;;;;;;5105175;28;20480;-62
2022/08/30 05:48:45;;;;;;;2.55;1.20;;;17.40;99.90;;;;;;5104649;28;20508;-62
2022/08/30 05:51:14;;;;;;;1.38;1.02;;;17.40;99.90;;;;;;5085660;28;20376;-62
2022/08/30 05:53:40;;;;;;;1.83;1.13;;;17.40;99.90;;;;;;5086297;28;20463;-62
2022/08/30 05:56:09;;;;;;;1.83;1.30;;;17.50;99.90;;;;;;5084522;28;21007;-62
2022/08/30 05:58:35;;;;;;;2.50;1.10;;;17.50;99.90;;;;;;5083409;28;20490;-62
2022/08/30 06:01:02;;;;;;;3.85;1.30;;;17.50;99.90;;;;;;5081662;28;20593;-62
2022/08/30 06:03:27;;;;;;;2.60;1.20;;;17.50;99.90;;;;;;5082614;28;20432;-62
2022/08/30 06:05:54;;;;;;;1.93;1.30;;;17.60;99.90;;;;;;5083908;28;20587;-62
2022/08/30 06:08:21;;;;;;;1.83;1.00;;;17.60;99.90;;;;;;5083913;28;20992;-62
2022/08/30 06:10:46;;;;;;;2.25;1.20;;;17.60;99.90;;;;;;5082355;28;20430;-62
2022/08/30 06:13:13;;;;;;;1.90;1.20;;;17.60;99.90;;;;;;5081435;28;20493;-62
2022/08/30 06:15:39;;;;;;;1.75;1.40;;;17.60;99.90;;;;;;5079779;28;20384;-62
2022/08/30 06:18:05;;;;;;;2.22;1.10;;;17.60;99.90;;;;;;5098956;28;20391;-62
2022/08/30 06:20:31;;;;;;;1.42;1.13;;;17.70;99.90;;;;;;5083155;28;20384;-62
2022/08/30 06:22:56;;;;;;;2.33;1.10;;;17.70;99.90;;;;;;5081380;28;20489;-62
2022/08/30 06:25:22;;;;;;;1.30;0.90;;;17.70;99.90;;;;;;5080307;28;20430;-62
2022/08/30 06:27:48;;;;;;;1.53;0.87;;;17.80;99.90;;;;;;5078808;28;20659;-62
2022/08/30 06:30:13;;;;;;;1.85;1.15;;;17.90;99.90;;;;;;5077342;28;20668;-62
2022/08/30 06:32:39;;;;;;;1.77;1.08;;;17.90;99.90;;;;;;5095631;28;20616;-62
2022/08/30 06:35:05;;;;;;;1.20;0.95;;;17.90;99.90;;;;;;5073223;28;20425;-62
2022/08/30 06:37:32;;;;;;;2.25;0.90;;;18.00;99.90;;;;;;5069594;28;20468;-62
2022/08/30 06:39:59;;;;;;;2.17;0.88;;;18.00;99.90;;;;;;5070209;28;20827;-63
2022/08/30 06:42:30;;;;;;;2.20;1.10;;;18.10;99.90;;;;;;5069145;28;20889;-63
2022/08/30 06:44:57;;;;;;;1.90;1.00;;;18.00;99.90;;;;;;5073144;28;20390;-63
2022/08/30 06:47:22;;;;;;;0.80;0.80;;;18.10;99.90;;;;;;5075642;28;20533;-63
2022/08/30 06:49:48;;;;;;;2.22;0.93;;;18.10;99.90;;;;;;5075574;28;20436;-63
2022/08/30 06:52:13;;;;;;;2.67;1.30;;;18.20;99.90;;;;;;5079709;28;20382;-63
2022/08/30 06:54:39;;;;;;;2.73;1.10;;;18.20;99.90;;;;;;5081701;28;20404;-63
2022/08/30 06:57:04;;;;;;;1.20;1.10;;;18.20;99.90;;;;;;5081265;28;20378;-63
2022/08/30 06:59:31;;;;;;;1.90;1.10;;;18.20;99.90;;;;;;5082585;28;20488;-63
2022/08/30 07:01:56;;;;;;;2.65;1.50;;;18.30;99.90;;;;;;5081506;28;20401;-63
2022/08/30 07:04:22;;;;;;;3.25;1.27;;;18.30;99.90;;;;;;5080321;28;20394;-63
2022/08/30 07:06:48;;;;;;;2.63;1.20;;;18.30;99.90;;;;;;5080067;28;20404;-63
2022/08/30 07:09:13;;;;;;;1.50;1.10;;;18.30;99.90;;;;;;5078178;28;20370;-63
2022/08/30 07:11:39;;;;;;;1.20;0.97;;;18.30;99.90;;;;;;5076780;28;20390;-63
2022/08/30 07:14:06;;;;;;;1.40;0.90;;;18.30;99.90;;;;;;5077313;28;20394;-63
2022/08/30 07:16:32;;;;;;;1.38;1.10;;;18.30;99.90;;;;;;5077152;28;20421;-63
2022/08/30 07:18:59;;;;;;;1.40;1.00;;;18.30;99.90;;;;;;5076504;28;20869;-63
2022/08/30 07:21:32;;;;;;;2.50;1.27;;;18.40;99.90;;;;;;5076383;28;20480;-63
2022/08/30 07:23:59;;;;;;;4.05;1.30;;;18.30;99.90;;;;;;5075262;28;20593;-62
2022/08/30 07:26:32;;;;;;;1.52;1.00;;;18.30;99.90;;;;;;5075874;28;20389;-62
2022/08/30 07:28:58;;;;;;;1.20;1.10;;;18.40;99.90;;;;;;5075673;28;20382;-62
2022/08/30 07:31:24;;;;;;;1.23;1.05;;;18.40;99.90;;;;;;5076350;28;20394;-63
2022/08/30 07:33:50;;;;;;;1.10;0.90;;;18.50;99.90;;;;;;5077370;28;20400;-63
2022/08/30 07:36:16;;;;;;;2.30;1.30;;;18.50;99.90;;;;;;5078119;28;20479;-63
2022/08/30 07:38:43;;;;;;;1.95;1.10;;;18.60;99.90;;;;;;5075739;28;20499;-63
2022/08/30 07:41:14;;;;;;;2.70;1.00;;;18.70;99.90;;;;;;5072995;28;20671;-63
2022/08/30 07:43:39;;;;;;;1.38;0.90;;;18.70;99.90;;;;;;5071936;28;20393;-63
2022/08/30 07:46:06;;;;;;;1.43;0.90;;;18.80;99.90;;;;;;5073994;28;20390;-63
2022/08/30 07:48:33;;;;;;;5.00;4.45;;;18.80;99.90;;;;;;5075077;28;20646;-63
2022/08/30 07:50:58;;;;;;;1.67;1.40;;;18.90;99.90;;;;;;5071700;28;20409;-63
2022/08/30 07:53:24;;;;;;;1.00;0.90;;;18.90;99.90;;;;;;5070579;28;20576;-63
2022/08/30 07:55:50;;;;;;;1.87;1.40;;;18.90;99.90;;;;;;5070281;28;20386;-62
2022/08/30 07:58:15;;;;;;;3.53;1.70;;;19.00;99.90;;;;;;5074076;28;20607;-63
2022/08/30 08:00:41;;;;;;;1.95;1.00;;;19.00;99.90;;;;;;5074540;28;20412;-62
2022/08/30 08:03:08;;;;;;;2.05;1.10;;;19.00;99.90;;;;;;5075516;28;20425;-63
2022/08/30 08:05:43;;;;;;;2.33;1.10;;;19.00;99.90;;;;;;5074581;28;20631;-63
2022/08/30 08:08:09;;;;;;;1.58;1.08;;;19.00;99.90;;;;;;5076582;28;20662;-63
2022/08/30 08:10:37;;;;;;;2.67;1.63;;;19.10;99.90;;;;;;5076537;28;21336;-63
2022/08/30 08:13:03;;;;;;;3.45;1.65;;;19.10;99.90;;;;;;5077206;28;20370;-63
2022/08/30 08:15:28;;;;;;;2.93;1.13;;;19.20;99.90;;;;;;5076593;28;20475;-63
2022/08/30 08:17:54;;;;;;;1.83;1.20;;;19.20;99.90;;;;;;5078772;28;20409;-63
2022/08/30 08:20:20;;;;;;;0.98;0.88;;;19.20;99.90;;;;;;5077953;28;20421;-63
2022/08/30 08:22:46;;;;;;;1.02;0.70;;;19.30;99.90;;;;;;5077350;28;20393;-63
2022/08/30 08:25:13;;;;;;;1.40;0.87;;;19.30;99.90;;;;;;5076393;28;20437;-64
2022/08/30 08:27:39;;;;;;;0.90;0.80;;;19.30;99.90;;;;;;5073483;28;20472;-63
2022/08/30 08:30:05;;;;;;;1.10;0.77;;;19.40;99.90;;;;;;5078204;28;20489;-63
2022/08/30 08:32:31;;;;;;;1.90;0.80;;;19.40;99.90;;;;;;5072393;28;20455;-63
2022/08/30 08:34:56;;;;;;;1.83;0.93;;;19.40;99.90;;;;;;5073638;28;20400;-63
2022/08/30 08:37:22;;;;;;;2.70;1.10;;;19.40;99.90;;;;;;5071740;28;20384;-63
2022/08/30 08:39:47;;;;;;;3.00;0.90;;;19.50;99.90;;;;;;5075575;28;20388;-63
2022/08/30 08:42:16;;;;;;;1.00;0.80;;;19.50;99.90;;;;;;5099184;28;20399;-63
2022/08/30 08:44:49;;;;;;;0.57;0.57;;;19.50;99.90;;;;;;5082313;28;20726;-63
2022/08/30 08:47:39;;;;;;;0.63;0.60;;;19.60;99.90;;;;;;5078422;28;20840;-62
2022/08/30 08:50:10;;;;;;;0.95;0.60;;;19.70;99.90;;;;;;5075892;28;20376;-63
2022/08/30 08:55:56;;;;;;;1.08;0.50;;;19.90;99.90;;;;;;5093344;28;20441;-63
2022/08/30 08:58:23;;;;;;;1.10;0.65;;;19.90;99.90;;;;;;5074770;28;20474;-63
2022/08/30 09:00:50;;;;;;;2.03;0.93;;;19.90;99.90;;;;;;5073870;28;20552;-63
2022/08/30 09:03:18;;;;;;;2.33;0.50;;;20.00;99.90;;;;;;5094489;28;20643;-62
2022/08/30 09:05:45;;;;;;;1.00;0.60;;;20.00;99.90;;;;;;5078630;28;20375;-63
2022/08/30 09:08:13;;;;;;;2.33;0.90;;;20.10;99.90;;;;;;5079021;28;20776;-63
2022/08/30 09:10:55;;;;;;;1.30;0.85;;;20.10;99.90;;;;;;5074370;28;20660;-64
2022/08/30 09:13:21;;;;;;;1.80;0.88;;;20.00;99.90;;;;;;5090576;28;20738;-63
2022/08/30 09:15:48;;;;;;;2.30;0.70;;;20.00;99.90;;;;;;5076414;28;20411;-63
2022/08/30 09:18:14;;;;;;;0.50;0.50;;;20.00;99.90;;;;;;5099947;28;20645;-63
2022/08/30 09:20:48;;;;;;;1.65;0.80;;;20.10;99.90;;;;;;5079800;28;20383;-63
2022/08/30 09:23:14;;;;;;;0.70;0.70;;;20.10;99.90;;;;;;5077151;28;20721;-63
2022/08/30 09:25:58;;;;;;;2.20;0.90;;;20.10;99.90;;;;;;5077392;28;20498;-63
2022/08/30 09:28:29;;;;;;;1.83;0.82;;;20.10;99.90;;;;;;5078934;28;20376;-63
2022/08/30 09:31:07;;;;;;;4.33;0.90;;;20.10;99.90;;;;;;5082781;28;20388;-63
2022/08/30 09:33:35;;;;;;;1.00;0.77;;;20.10;99.90;;;;;;5099562;28;20834;-64
2022/08/30 09:36:25;;;;;;;3.53;0.87;;;20.20;99.90;;;;;;5075713;28;20837;-63
2022/08/30 09:39:03;;;;;;;0.98;0.70;;;20.10;99.90;;;;;;5073967;28;20386;-63
2022/08/30 09:41:41;;;;;;;1.50;0.70;;;20.20;99.90;;;;;;5077477;28;20392;-63
2022/08/30 09:44:26;;;;;;;1.23;0.70;;;20.20;99.90;;;;;;5074401;28;20446;-63
2022/08/30 12:53:07;;;;;;;1.57;0.70;;;26.60;99.90;;;;;;4971530;28;20446;-64
2022/08/30 12:56:03;;;;;;;3.28;1.00;;;27.00;99.90;;;;;;4971225;28;20402;-64
2022/08/30 12:58:46;;;;;;;0.80;0.70;;;27.20;99.90;;;;;;4966123;28;20414;-64
2022/08/30 13:01:28;;;;;;;1.00;0.80;;;27.40;99.90;;;;;;4967816;28;20414;-64
2022/08/30 13:04:10;;;;;;;1.08;0.90;;;27.70;99.90;;;;;;4972003;28;20398;-64
2022/08/30 13:06:57;;;;;;;0.60;0.60;;;27.90;99.90;;;;;;4971435;28;20626;-64
2022/08/30 13:09:28;;;;;;;1.60;0.93;;;28.10;99.90;;;;;;4973726;28;20433;-64
2022/08/30 13:11:54;;;;;;;1.10;0.80;;;27.80;99.90;;;;;;4972572;28;20602;-64
2022/08/30 13:14:34;;;;;;;1.15;0.90;;;27.60;99.90;;;;;;4976247;28;20399;-64
2022/08/30 13:17:20;;;;;;;0.77;0.60;;;27.30;99.90;;;;;;4977050;28;20393;-64
2022/08/30 13:20:05;;;;;;;2.35;0.80;;;27.10;99.90;;;;;;4974678;28;20702;-64
2022/08/30 13:22:39;;;;;;;2.40;1.00;;;26.70;99.90;;;;;;4971298;28;20419;-64
2022/08/30 13:25:07;;;;;;;2.13;0.93;;;26.00;99.90;;;;;;4972497;28;20632;-64
2022/08/30 13:27:34;;;;;;;1.83;0.90;;;25.50;99.90;;;;;;4974751;28;20396;-64
2022/08/30 13:30:09;;;;;;;1.37;0.90;;;25.40;99.90;;;;;;4973044;28;20535;-65
2022/08/30 13:32:36;;;;;;;1.70;0.95;;;25.10;99.90;;;;;;4972430;28;20421;-64
2022/08/30 13:35:04;;;;;;;2.22;0.90;;;24.90;99.90;;;;;;4975093;28;20618;-64
2022/08/30 13:37:31;;;;;;;2.70;0.80;;;24.80;99.90;;;;;;4974831;28;20465;-64
2022/08/30 13:39:57;;;;;;;2.22;0.90;;;25.30;99.90;;;;;;4971679;28;20468;-64
2022/08/30 13:42:23;;;;;;;3.15;1.10;;;25.80;99.90;;;;;;4970412;28;20601;-64
2022/08/30 13:44:48;;;;;;;3.17;1.00;;;25.90;99.90;;;;;;4972020;28;20518;-64
2022/08/30 13:47:15;;;;;;;1.60;0.93;;;25.80;99.90;;;;;;4976451;28;20501;-65
2022/08/30 13:49:43;;;;;;;1.67;0.82;;;25.50;99.90;;;;;;4976096;28;20481;-65
2022/08/30 13:52:12;;;;;;;1.00;0.90;;;25.20;99.90;;;;;;4992787;28;20478;-64
2022/08/30 13:54:38;;;;;;;1.73;1.15;;;25.00;99.90;;;;;;4999280;28;20393;-64
2022/08/30 13:57:04;;;;;;;2.80;1.00;;;24.80;99.90;;;;;;4982039;28;20407;-64
2022/08/30 13:59:32;;;;;;;1.10;1.00;;;24.60;99.90;;;;;;4996125;28;20468;-65
2022/08/30 14:01:59;;;;;;;1.50;1.08;;;24.50;99.90;;;;;;4983592;28;20408;-64
2022/08/30 14:04:25;;;;;;;2.58;1.00;;;24.60;99.90;;;;;;4988115;28;20385;-64
2022/08/30 14:06:50;;;;;;;2.80;0.77;;;25.10;99.90;;;;;;5004870;28;20411;-64
2022/08/30 14:09:16;;;;;;;1.58;0.90;;;25.70;99.90;;;;;;4989492;28;20384;-65
2022/08/30 14:11:42;;;;;;;1.20;0.90;;;26.20;99.90;;;;;;5005099;28;20393;-65
2022/08/30 14:14:08;;;;;;;0.98;0.60;;;26.90;99.90;;;;;;4990220;28;20388;-64
2022/08/30 14:16:35;;;;;;;6.07;0.90;;;27.50;99.90;;;;;;5008144;28;20519;-65
2022/08/30 14:19:01;;;;;;;1.30;0.85;;;27.70;99.90;;;;;;4990371;28;20380;-65
2022/08/30 14:21:27;;;;;;;1.77;0.80;;;28.10;99.90;;;;;;4989247;28;20405;-65
2022/08/30 14:23:54;;;;;;;3.60;1.10;;;28.30;99.90;;;;;;5007864;28;20500;-65
2022/08/30 14:26:23;;;;;;;1.55;0.90;;;28.00;99.90;;;;;;4988750;28;21064;-65
2022/08/30 14:28:49;;;;;;;3.10;0.70;;;28.00;99.90;;;;;;4988931;28;20392;-65
2022/08/30 14:31:15;;;;;;;2.50;0.87;;;28.40;99.90;;;;;;4987767;28;20472;-65
2022/08/30 14:33:41;;;;;;;3.10;1.00;;;28.60;99.90;;;;;;4991569;28;20472;-65
2022/08/30 14:36:07;;;;;;;1.70;0.70;;;28.50;99.90;;;;;;4991686;28;20413;-65
2022/08/30 14:38:33;;;;;;;1.80;0.75;;;28.70;99.90;;;;;;5009651;28;21030;-65
2022/08/30 14:40:58;;;;;;;2.70;1.00;;;28.90;99.80;;;;;;4991889;28;20421;-65
2022/08/30 14:43:24;;;;;;;1.40;0.80;;;28.90;99.40;;;;;;4990647;28;20405;-65
2022/08/30 14:45:50;;;;;;;1.40;0.70;;;29.20;99.30;;;;;;4992884;28;20467;-65
2022/08/30 14:48:15;;;;;;;1.20;0.80;;;29.30;98.80;;;;;;4991161;28;20448;-65
2022/08/30 14:50:41;;;;;;;1.10;0.90;;;29.40;98.30;;;;;;5008192;28;20470;-65
2022/08/30 14:53:07;;;;;;;1.60;0.90;;;29.50;98.10;;;;;;4990166;28;20443;-65
2022/08/30 14:55:34;;;;;;;1.70;0.70;;;29.60;97.80;;;;;;4987198;28;20454;-65
2022/08/30 14:58:05;;;;;;;1.10;0.90;;;29.50;97.80;;;;;;4986638;28;20384;-65
2022/08/30 15:00:31;;;;;;;1.38;0.93;;;29.70;97.40;;;;;;4986747;28;20389;-65
2022/08/30 15:02:56;;;;;;;1.70;0.90;;;29.40;98.10;;;;;;4987220;28;20436;-65
2022/08/30 15:05:22;;;;;;;1.33;0.80;;;29.00;98.10;;;;;;4985456;28;20618;-65
2022/08/30 15:07:49;;;;;;;1.30;0.80;;;28.50;98.60;;;;;;4986793;28;20480;-65
2022/08/30 15:10:18;;;;;;;1.70;0.80;;;28.00;99.40;;;;;;4987323;28;20377;-65
2022/08/30 15:12:53;;;;;;;2.50;1.00;;;27.70;99.90;;;;;;4979421;28;20456;-65
2022/08/30 15:15:20;;;;;;;3.10;0.90;;;27.90;99.90;;;;;;4983992;28;20536;-65
2022/08/30 15:17:47;;;;;;;1.10;0.93;;;28.20;99.30;;;;;;5002328;28;20388;-65
2022/08/30 15:20:14;;;;;;;2.00;0.70;;;28.70;99.00;;;;;;4987872;28;20384;-65
2022/08/30 15:22:40;;;;;;;1.50;0.93;;;28.90;98.40;;;;;;4988211;28;20506;-65
2022/08/30 15:25:06;;;;;;;1.02;0.90;;;28.80;98.80;;;;;;4988237;28;20719;-65
2022/08/30 15:27:31;;;;;;;2.28;1.00;;;28.90;98.60;;;;;;4985991;28;20389;-65
2022/08/30 15:29:57;;;;;;;2.13;0.70;;;28.90;98.80;;;;;;4984235;28;20385;-65
2022/08/30 15:32:23;;;;;;;1.50;0.77;;;28.90;98.00;;;;;;4984970;28;20802;-65
2022/08/30 15:34:55;;;;;;;2.00;1.00;;;29.00;98.00;;;;;;4997336;28;20391;-65
2022/08/30 15:38:10;;;;;;;0.98;0.70;;;29.20;98.00;;;;;;4996897;28;20500;-65
2022/08/30 15:43:58;;;;;;;1.85;0.90;;;28.00;98.90;;;;;;5001307;28;20459;-65
2022/08/30 15:46:25;;;;;;;1.65;0.90;;;28.00;99.80;;;;;;5006365;28;20412;-65
2022/08/30 15:48:56;;;;;;;1.10;0.70;;;28.10;99.90;;;;;;4989849;28;20384;-65
2022/08/30 15:51:23;;;;;;;2.00;0.80;;;28.30;99.60;;;;;;4987105;28;20499;-65
2022/08/30 15:53:50;;;;;;;1.80;1.03;;;28.40;99.40;;;;;;4988369;28;20396;-65
2022/08/30 15:56:16;;;;;;;3.55;0.80;;;28.50;99.30;;;;;;4989238;28;20387;-65
2022/08/30 15:58:42;;;;;;;1.50;0.70;;;28.40;99.10;;;;;;4986726;28;20404;-65
2022/08/30 16:01:08;;;;;;;1.90;1.00;;;28.50;99.00;;;;;;5003828;28;20487;-65
2022/08/30 16:03:34;;;;;;;3.00;0.80;;;28.60;99.00;;;;;;4988120;28;21148;-65
2022/08/30 16:06:01;;;;;;;0.60;0.60;;;28.70;98.70;;;;;;4986817;28;21199;-68